CDT,Max TemperatureF,Mean TemperatureF,Min TemperatureF,Max Dew PointF,MeanDew PointF,Min DewpointF,Max Humidity, Mean Humidity, Min Humidity, Max Sea Level PressureIn, Mean Sea Level PressureIn, Min Sea Level PressureIn, Max VisibilityMiles, Mean VisibilityMiles, Min VisibilityMiles, Max Wind SpeedMPH, Mean Wind SpeedMPH, Max Gust SpeedMPH,PrecipitationIn, CloudCover, Events, WindDirDegrees
2013-6-1,72,63,53,53,50,46,83,66,49,30.08,29.92,29.78,10,10,10,25,15,32,0.00,4,,315
2013-6-2,72,60,48,49,46,44,86,63,40,30.15,30.08,29.99,10,10,10,20,8,23,0.00,0,,7
2013-6-3,80,66,52,60,53,48,89,67,45,30.01,29.89,29.75,10,10,10,25,15,32,0.00,0,,143
2013-6-4,86,76,66,67,63,60,87,66,44,29.91,29.83,29.72,10,10,8,17,9,23,0.03,3,Rain-Thunderstorm,137
2013-6-5,72,66,59,65,60,54,93,75,57,30.04,29.97,29.89,10,9,1,35,11,44,0.73,7,Rain-Thunderstorm,6
2013-6-6,77,65,52,55,52,50,93,67,41,30.04,30.00,29.95,10,10,10,16,7,22,0.00,1,,330
2013-6-7,80,67,53,56,53,50,86,64,42,30.03,29.97,29.88,10,10,10,9,5,14,0.00,1,,65
2013-6-8,84,72,60,64,59,54,93,70,46,29.87,29.78,29.66,10,8,1,29,13,39,1.04,3,Rain-Thunderstorm,185
2013-6-9,87,72,57,61,57,53,93,64,34,29.88,29.84,29.79,10,10,10,20,9,25,0.00,0,,293
2013-6-10,94,76,57,72,63,54,87,66,44,29.88,29.79,29.69,10,10,10,17,8,23,0.00,0,,149
2013-6-11,98,85,71,65,61,58,62,46,29,29.80,29.72,29.66,10,10,10,29,16,38,0.00,0,,178
2013-6-12,96,84,71,70,65,57,71,53,34,29.97,29.78,29.65,10,10,10,25,15,35,0.00,0,,308
2013-6-13,88,75,62,64,58,53,73,57,40,30.08,30.01,29.93,10,10,10,18,9,22,0.00,0,,78
2013-6-14,101,86,71,71,64,58,79,53,26,29.93,29.84,29.75,10,10,10,25,13,36,0.00,0,,175
2013-6-15,93,81,69,70,64,61,73,57,41,29.93,29.86,29.78,10,10,10,25,8,33,0.11,2,Rain-Thunderstorm,187
2013-6-16,90,79,67,69,65,61,79,60,41,29.98,29.92,29.85,10,10,10,24,8,29,0.02,2,Thunderstorm,43
2013-6-17,87,77,67,70,65,59,90,65,39,30.02,29.95,29.78,10,9,4,33,8,37,0.26,5,Rain-Thunderstorm,10
2013-6-18,90,77,63,67,62,54,93,61,29,30.03,29.97,29.91,10,10,10,24,5,30,T,1,,151
2013-6-19,89,77,64,66,63,60,93,68,42,29.97,29.92,29.85,10,10,10,23,11,28,0.00,2,,152
2013-6-20,96,83,70,70,67,64,84,61,38,29.89,29.82,29.74,10,10,9,31,18,43,0.00,0,,167
2013-6-21,99,88,77,69,66,62,69,51,33,29.84,29.81,29.78,10,10,9,28,19,37,0.00,0,,174
2013-6-22,98,88,77,68,64,60,64,49,33,29.86,29.79,29.71,10,10,10,37,20,45,0.00,0,,171
2013-6-23,96,85,74,69,65,59,69,51,33,29.83,29.77,29.73,10,10,10,26,14,36,0.00,2,,162
2013-6-24,94,86,78,67,65,61,67,50,33,29.81,29.77,29.67,10,10,10,36,21,47,T,0,Thunderstorm,175
2013-6-25,102,89,76,70,66,61,74,51,27,29.83,29.73,29.56,10,10,6,35,18,45,0.05,2,Rain-Thunderstorm,173
2013-6-26,103,86,69,70,65,57,93,58,23,29.85,29.80,29.73,10,10,7,13,6,17,0.00,0,,84
2013-6-27,107,90,73,73,67,57,87,57,27,29.96,29.86,29.76,10,10,2,29,8,51,0.00,1,Thunderstorm,182
2013-6-28,95,81,67,69,60,50,93,61,28,30.02,29.96,29.91,10,10,10,23,10,30,0.00,0,,343
2013-6-29,91,78,65,58,53,47,73,50,26,29.98,29.93,29.88,10,10,10,30,14,38,0.00,0,,335
2013-6-30,84,72,59,57,53,47,78,54,30,30.08,30.01,29.96,10,10,7,23,10,30,0.00,0,,2